Flight Track Log - Related Links

Times and Time Zones

All times are in EDT time to prevent confusion due to time zone crossing. See the WAE5 flight status page for this flight to view local times or setup timezone preferences in your user account.

Time Position Orientation Groundspeed Altitude Reporting Facility
EDT Latitude Longitude Course Direction KTS MPH feet Rate Location/Type
Tue 08:48:06 AM 40.7614 -111.9692 291° West 125 144 4,800  Level Salt Lake Center
Tue 08:48:48 AM 40.7689 -111.9950 291° West 111 128 5,200 606 Climbing Salt Lake Center
Tue 08:49:55 AM 40.7928 -112.0294 312° West 117 135 5,900 527 Climbing Salt Lake Center
Tue 08:50:19 AM 40.7983 -112.0353 322° Northwest 115 132 6,000 492 Climbing Salt Lake Center
Tue 08:50:56 AM 40.8147 -112.0644 307° West 121 139 6,400 590 Climbing Salt Lake Center
Tue 08:51:20 AM 40.8197 -112.0700 320° Northwest 120 138 6,600 750 Climbing Salt Lake Center
Tue 08:51:44 AM 40.8306 -112.0903 305° West 119 137 7,000 700 Climbing Salt Lake Center
Tue 08:52:20 AM 40.8378 -112.1031 307° West 112 129 7,300 436 Climbing Salt Lake Center
Tue 08:52:39 AM 40.8467 -112.1189 307° West 111 128 7,400 393 Climbing Salt Lake Center
Tue 08:53:21 AM 40.8581 -112.1347 314° West 113 130 7,700 600 Climbing Salt Lake Center
Tue 08:53:39 AM 40.8681 -112.1511 309° West 111 128 8,000 492 Climbing Salt Lake Center
Tue 08:54:22 AM 40.8772 -112.1686 305° West 115 132 8,200 448 Climbing Salt Lake Center
Tue 08:54:46 AM 40.8892 -112.1922 304° West 123 142 8,500 492 Climbing Salt Lake Center
Tue 08:55:23 AM 40.9006 -112.1994 334° Northwest 122 140 8,700 590 Climbing Salt Lake Center
Tue 08:55:47 AM 40.9200 -112.2075 343° North 118 136 9,100 800 Climbing Salt Lake Center
Tue 08:56:23 AM 40.9389 -112.2097 355° North 117 135 9,500 545 Climbing Salt Lake Center
Tue 08:56:53 AM 40.9539 -112.2158 343° North 116 133 9,700 393 Climbing Salt Lake Center
Tue 08:57:24 AM 40.9706 -112.2219 345° North 118 136 9,900 327 Climbing Salt Lake Center
Tue 08:57:48 AM 40.9878 -112.2244 354° North 131 151 10,000 98 Climbing Salt Lake Center
Tue 08:58:25 AM 41.0106 -112.2236 North 145 167 10,000  Level Salt Lake Center
Tue 08:58:55 AM 41.0328 -112.2233 North 156 180 10,000  Level Salt Lake Center
Tue 08:59:26 AM 41.0558 -112.2253 356° North 162 186 10,000  Level Salt Lake Center
Tue 08:59:55 AM 41.0789 -112.2278 355° North 169 194 10,000  Level Salt Lake Center
Tue 09:00:26 AM 41.1039 -112.2281 360° North 171 197 10,000  Level Salt Lake Center
Tue 09:01:08 AM 41.1389 -112.2272 North 174 200 10,000  Level Salt Lake Center
Tue 09:01:27 AM 41.1531 -112.2275 359° North 175 201 10,000 122 Level Salt Lake Center
Tue 09:01:57 AM 41.1806 -112.2303 356° North 175 201 10,100  Climbing Salt Lake Center
Tue 09:02:28 AM 41.2017 -112.2336 353° North 175 201 10,000 -111 Descending Salt Lake Center
Tue 09:02:51 AM 41.2258 -112.2319 North 177 204 10,000  Level Salt Lake Center
Tue 09:03:28 AM 41.2508 -112.2358 353° North 175 201 10,000  Level Salt Lake Center
Tue 09:04:29 AM 41.3011 -112.2408 356° North 180 207 10,000  Level Salt Lake Center
Tue 09:05:30 AM 41.3503 -112.2442 357° North 177 204 10,000  Level Salt Lake Center
Tue 09:06:31 AM 41.4011 -112.2419 North 181 208 10,000  Level Salt Lake Center
Tue 09:07:32 AM 41.4519 -112.2414 360° North 184 212 10,000  Level Salt Lake Center
Tue 09:08:33 AM 41.5025 -112.2422 359° North 182 209 10,000  Level Salt Lake Center
Tue 09:09:33 AM 41.5536 -112.2356 North 184 212 10,000 50 Level Salt Lake Center
Tue 09:10:34 AM 41.6044 -112.2283 North 184 212 10,100  Climbing Salt Lake Center
Tue 09:11:35 AM 41.6514 -112.2475 343° North 177 204 10,000 -49 Descending Salt Lake Center
Tue 09:12:36 AM 41.6969 -112.2739 337° Northwest 177 204 10,000  Level Salt Lake Center
Tue 09:13:37 AM 41.7469 -112.2925 344° North 184 212 10,000  Level Salt Lake Center
Tue 09:14:37 AM 41.7950 -112.3056 349° North 178 205 10,000 -50 Level Salt Lake Center
Tue 09:15:38 AM 41.8533 -112.3222 348° North 178 205 9,900  Descending Salt Lake Center
Tue 09:16:39 AM 41.9039 -112.3267 356° North 179 206 10,000 49 Climbing Salt Lake Center
Tue 09:17:40 AM 41.9511 -112.3436 345° North 178 205 10,000  Level Salt Lake Center
Tue 09:18:41 AM 41.9958 -112.3694 337° Northwest 177 204 10,000  Level Salt Lake Center
Tue 09:19:42 AM 42.0411 -112.3914 340° North 175 201 10,000  Level Salt Lake Center
Tue 09:20:43 AM 42.0878 -112.4047 348° North 172 198 10,000  Level Salt Lake Center
Tue 09:21:44 AM 42.1319 -112.4239 342° North 170 196 10,000  Level Salt Lake Center
Tue 09:22:45 AM 42.1783 -112.4408 345° North 170 196 10,000  Level Salt Lake Center
Tue 09:23:46 AM 42.2236 -112.4603 342° North 171 197 10,000  Level Salt Lake Center
Tue 09:24:47 AM 42.2703 -112.4767 345° North 172 198 10,000  Level Salt Lake Center
Tue 09:25:48 AM 42.3158 -112.4892 349° North 170 196 10,000  Level Salt Lake Center
Tue 09:26:49 AM 42.3631 -112.5014 349° North 170 196 10,000  Level Salt Lake Center
Tue 09:27:50 AM 42.4083 -112.5147 348° North 169 194 10,000  Level Salt Lake Center

Login

Don't have an account? Register now (free) for customized features, flight alerts, and more!